createdAt,value
2022-12-19T00:30:32.059Z,1011.16
2022-12-19T00:31:12.496Z,1011.14
2022-12-19T00:31:53.014Z,1011.28
2022-12-19T00:32:33.423Z,1011.23
2022-12-19T00:33:13.893Z,1011.25
2022-12-19T00:33:54.395Z,1011.32
2022-12-19T00:34:34.869Z,1011.27
2022-12-19T00:35:15.344Z,1011.25
2022-12-19T00:35:55.861Z,1011.31
2022-12-19T00:36:36.361Z,1011.34
2022-12-19T00:39:34.876Z,1011.13
2022-12-19T00:40:15.340Z,1011.17
2022-12-19T00:40:55.847Z,1011.14
2022-12-19T00:41:36.387Z,1011.19
2022-12-19T00:42:16.931Z,1011.1
2022-12-19T00:42:57.482Z,1011.03
2022-12-19T00:43:37.937Z,1011.12
2022-12-19T00:44:58.960Z,1011.07
2022-12-19T00:45:39.618Z,1011.07
2022-12-19T00:46:20.047Z,1011.05
2022-12-19T00:47:00.457Z,1011.07
2022-12-19T00:47:40.929Z,1011.11
2022-12-19T00:48:21.426Z,1011.05
2022-12-19T00:49:01.907Z,1011.05
2022-12-19T00:49:42.419Z,1011.06
2022-12-19T00:50:22.866Z,1011.01
2022-12-19T00:51:03.377Z,1010.96
2022-12-19T00:51:43.877Z,1010.91
2022-12-19T00:52:24.385Z,1010.91
2022-12-19T00:53:04.886Z,1010.89
2022-12-19T00:53:45.371Z,1010.88
2022-12-19T00:54:25.883Z,1010.84
2022-12-19T00:55:06.805Z,1010.94
2022-12-19T00:55:46.845Z,1010.89
2022-12-19T00:56:27.323Z,1010.91
2022-12-19T00:57:07.837Z,1010.88
2022-12-19T00:57:48.329Z,1010.83
2022-12-19T00:58:28.855Z,1010.91
2022-12-19T00:59:09.332Z,1010.87
2022-12-19T00:59:49.815Z,1010.78
2022-12-19T01:00:30.325Z,1010.82
2022-12-19T01:01:10.918Z,1010.8
2022-12-19T01:01:51.451Z,1010.7
2022-12-19T01:02:31.892Z,1010.78
2022-12-19T01:03:12.266Z,1010.7
2022-12-19T01:04:26.408Z,1010.7
2022-12-19T01:04:36.815Z,1010.72
2022-12-19T01:05:13.698Z,1010.7
2022-12-19T01:05:54.193Z,1010.82
2022-12-19T01:06:34.683Z,1010.7
2022-12-19T01:07:15.183Z,1010.8
2022-12-19T01:07:55.684Z,1010.77
2022-12-19T01:08:36.180Z,1010.77
2022-12-19T01:09:16.665Z,1010.81
2022-12-19T01:09:57.163Z,1010.88
2022-12-19T01:10:37.662Z,1010.83
2022-12-19T01:11:18.172Z,1010.89
2022-12-19T01:11:58.662Z,1010.84
2022-12-19T01:13:19.687Z,1010.94
2022-12-19T01:14:00.211Z,1010.85
2022-12-19T01:14:40.715Z,1010.84
2022-12-19T01:15:21.231Z,1010.95
2022-12-19T01:16:01.826Z,1010.88
2022-12-19T01:16:42.369Z,1010.89
2022-12-19T01:17:22.708Z,1010.91
2022-12-19T01:18:03.234Z,1010.9
2022-12-19T01:18:43.656Z,1010.81
2022-12-19T01:19:24.169Z,1010.79
2022-12-19T01:20:45.157Z,1010.81
2022-12-19T01:21:25.636Z,1010.77
2022-12-19T01:22:06.148Z,1010.93
2022-12-19T01:22:46.678Z,1010.72
2022-12-19T01:23:27.222Z,1010.79
2022-12-19T01:24:07.659Z,1010.8
2022-12-19T01:24:48.176Z,1010.88
2022-12-19T01:25:28.729Z,1010.82
2022-12-19T01:26:09.236Z,1010.79
2022-12-19T01:26:49.777Z,1010.87
2022-12-19T01:27:30.280Z,1010.8
2022-12-19T01:28:10.810Z,1010.76
2022-12-19T01:28:51.279Z,1010.82
2022-12-19T01:29:31.774Z,1010.89
2022-12-19T01:30:12.283Z,1010.89
2022-12-19T01:30:52.770Z,1010.83
2022-12-19T01:31:33.359Z,1010.77
2022-12-19T01:32:13.884Z,1010.81
2022-12-19T01:32:54.301Z,1010.81
2022-12-19T01:33:34.765Z,1010.81
2022-12-19T01:34:15.275Z,1010.8
2022-12-19T01:34:55.721Z,1010.94
2022-12-19T01:35:36.193Z,1010.87
2022-12-19T01:36:16.690Z,1010.84
2022-12-19T01:36:57.184Z,1010.89
2022-12-19T01:38:18.185Z,1010.79
2022-12-19T01:38:58.699Z,1010.73
2022-12-19T01:39:39.184Z,1010.68
2022-12-19T01:40:19.716Z,1010.7
2022-12-19T01:41:00.230Z,1010.71
2022-12-19T01:41:40.720Z,1010.66
2022-12-19T01:42:23.287Z,1010.65
2022-12-19T01:43:01.650Z,1010.7
2022-12-19T01:43:42.128Z,1010.8
2022-12-19T01:44:22.573Z,1010.66
2022-12-19T01:45:03.095Z,1010.84
2022-12-19T01:45:45.786Z,1010.7
2022-12-19T01:46:24.183Z,1010.68
2022-12-19T01:47:04.649Z,1010.72
2022-12-19T01:47:45.256Z,1010.76
2022-12-19T01:48:25.613Z,1010.66
2022-12-19T01:49:06.119Z,1010.75
2022-12-19T01:49:46.628Z,1010.73
2022-12-19T01:51:07.633Z,1010.71
2022-12-19T01:51:48.173Z,1010.7
2022-12-19T01:52:28.709Z,1010.66
2022-12-19T01:53:09.207Z,1010.71
2022-12-19T01:53:49.859Z,1010.66
2022-12-19T01:54:30.185Z,1010.68
2022-12-19T01:55:10.736Z,1010.64
2022-12-19T01:55:51.273Z,1010.58
2022-12-19T01:56:38.338Z,1010.6
2022-12-19T01:57:18.877Z,1010.47
2022-12-19T01:58:39.864Z,1010.49
2022-12-19T01:59:20.296Z,1010.49
2022-12-19T02:00:00.834Z,1010.39
2022-12-19T02:00:41.380Z,1010.45
2022-12-19T02:01:21.811Z,1010.41
2022-12-19T02:02:02.510Z,1010.42
2022-12-19T02:02:42.911Z,1010.35
2022-12-19T02:03:23.508Z,1010.38
2022-12-19T02:04:03.831Z,1010.44
2022-12-19T02:04:44.357Z,1010.4
2022-12-19T02:05:24.820Z,1010.45
2022-12-19T02:06:05.312Z,1010.46
2022-12-19T02:06:45.842Z,1010.42
2022-12-19T02:07:26.328Z,1010.36
2022-12-19T02:08:06.876Z,1010.37
2022-12-19T02:08:47.377Z,1010.42
2022-12-19T02:09:27.873Z,1010.44
2022-12-19T02:10:08.381Z,1010.37
2022-12-19T02:10:48.852Z,1010.32
2022-12-19T02:11:29.319Z,1010.3
2022-12-19T02:12:09.815Z,1010.28
2022-12-19T02:12:50.318Z,1010.37
2022-12-19T02:13:30.786Z,1010.15
2022-12-19T02:14:11.326Z,1010.28
2022-12-19T02:14:51.829Z,1010.21
2022-12-19T02:15:32.307Z,1010.22
2022-12-19T02:16:12.896Z,1010.31
2022-12-19T02:16:53.374Z,1010.19
2022-12-19T02:17:33.868Z,1010.14
2022-12-19T02:18:54.965Z,1010.22
2022-12-19T02:19:35.341Z,1010.15
2022-12-19T02:20:15.823Z,1010.21
2022-12-19T02:20:56.311Z,1010.2
2022-12-19T02:21:36.836Z,1010.14
2022-12-19T02:22:19.050Z,1010.18
2022-12-19T02:22:57.869Z,1010.13
2022-12-19T02:23:38.334Z,1009.98
2022-12-19T02:24:18.883Z,1010.05
2022-12-19T02:24:59.442Z,1010.15
2022-12-19T02:25:39.963Z,1010.3
2022-12-19T02:26:20.469Z,1009.99
2022-12-19T02:27:00.996Z,1010.02
2022-12-19T02:27:41.498Z,1009.95
2022-12-19T02:28:21.996Z,1010.04
2022-12-19T02:29:02.526Z,1010.01
2022-12-19T02:29:43.039Z,1010.23
2022-12-19T02:30:23.559Z,1010.17
2022-12-19T02:31:04.082Z,1010.08
2022-12-19T02:31:44.578Z,1010.04
2022-12-19T02:32:25.052Z,1009.99
2022-12-19T02:33:05.548Z,1009.97
2022-12-19T02:33:46.066Z,1010.03
2022-12-19T02:34:26.699Z,1009.95
2022-12-19T02:35:07.079Z,1009.97
2022-12-19T02:35:47.558Z,1009.86
2022-12-19T02:36:28.037Z,1009.88
2022-12-19T02:37:08.513Z,1009.88
2022-12-19T02:37:49.001Z,1009.89
2022-12-19T02:38:29.534Z,1009.91
2022-12-19T02:39:10.052Z,1009.87
2022-12-19T02:39:50.548Z,1009.88
2022-12-19T02:40:31.026Z,1009.79
2022-12-19T02:41:11.618Z,1009.85
2022-12-19T02:41:52.041Z,1009.76
2022-12-19T02:42:32.511Z,1009.78
2022-12-19T02:43:13.017Z,1009.74
2022-12-19T02:43:56.833Z,1009.81
2022-12-19T02:44:34.029Z,1009.8
2022-12-19T02:45:14.634Z,1009.74
2022-12-19T02:45:55.049Z,1009.66
2022-12-19T02:46:35.584Z,1009.73
2022-12-19T02:47:16.089Z,1009.75
2022-12-19T02:47:56.566Z,1009.66
2022-12-19T02:48:37.086Z,1009.72
2022-12-19T02:49:20.720Z,1009.71
2022-12-19T02:51:30.881Z,1009.64
2022-12-19T02:52:11.248Z,1009.63
2022-12-19T02:52:51.713Z,1009.7
2022-12-19T02:53:32.184Z,1009.67
2022-12-19T02:54:12.655Z,1009.64
2022-12-19T02:54:53.121Z,1009.62
2022-12-19T02:55:33.600Z,1009.57
2022-12-19T02:56:14.122Z,1009.6
2022-12-19T02:56:54.568Z,1009.62
2022-12-19T02:57:35.063Z,1009.63
2022-12-19T02:58:15.555Z,1009.51
2022-12-19T02:58:56.086Z,1009.57
2022-12-19T02:59:36.545Z,1009.57
2022-12-19T03:00:17.046Z,1009.61
2022-12-19T03:00:57.579Z,1009.63
2022-12-19T03:01:38.134Z,1009.57
2022-12-19T03:02:18.629Z,1009.62
2022-12-19T03:03:00.890Z,1009.64
2022-12-19T03:04:20.036Z,1009.7
2022-12-19T03:05:00.422Z,1009.62
2022-12-19T03:05:40.914Z,1009.59
2022-12-19T03:06:21.563Z,1009.58
2022-12-19T03:07:02.127Z,1009.45
2022-12-19T03:07:42.525Z,1009.58
2022-12-19T03:08:23.023Z,1009.55
2022-12-19T03:09:03.544Z,1009.45
2022-12-19T03:09:44.144Z,1009.45
2022-12-19T03:10:24.551Z,1009.41
2022-12-19T03:11:05.063Z,1009.5
2022-12-19T03:11:45.554Z,1009.47
2022-12-19T03:12:26.024Z,1009.38
2022-12-19T03:13:06.553Z,1009.39
2022-12-19T03:13:46.983Z,1009.4
2022-12-19T03:14:27.488Z,1009.37
2022-12-19T03:15:08.002Z,1009.45
2022-12-19T03:15:48.491Z,1009.47
2022-12-19T03:16:29.069Z,1009.32
2022-12-19T03:17:09.452Z,1009.33
2022-12-19T03:17:49.940Z,1009.32
2022-12-19T03:18:30.420Z,1009.41
2022-12-19T03:19:10.933Z,1009.3
2022-12-19T03:20:31.878Z,1009.3
2022-12-19T03:21:12.378Z,1009.41
2022-12-19T03:21:52.854Z,1009.34
2022-12-19T03:22:33.464Z,1009.31
2022-12-19T03:23:13.787Z,1009.31
2022-12-19T03:23:54.272Z,1009.36
2022-12-19T03:24:34.734Z,1009.34
2022-12-19T03:25:15.241Z,1009.39
2022-12-19T03:25:55.721Z,1009.32
2022-12-19T03:26:36.209Z,1009.41
2022-12-19T03:27:16.670Z,1009.38
2022-12-19T03:27:57.155Z,1009.33
2022-12-19T03:28:37.638Z,1009.35
2022-12-19T03:29:18.142Z,1009.37
2022-12-19T03:29:58.642Z,1009.31
2022-12-19T03:30:39.161Z,1009.33
2022-12-19T03:31:19.622Z,1009.46
2022-12-19T03:32:00.102Z,1009.54
2022-12-19T03:32:40.560Z,1009.25
2022-12-19T03:33:21.071Z,1009.35
2022-12-19T03:34:01.579Z,1009.28
2022-12-19T03:34:42.057Z,1009.27
2022-12-19T03:35:22.529Z,1009.26
2022-12-19T03:36:03.008Z,1009.23
2022-12-19T03:36:43.497Z,1009.27
2022-12-19T03:37:24.003Z,1009.27
2022-12-19T03:38:04.664Z,1009.27
2022-12-19T03:38:45.008Z,1009.33
2022-12-19T03:39:25.473Z,1009.29
2022-12-19T03:40:05.928Z,1009.28
2022-12-19T03:40:46.418Z,1009.24
2022-12-19T03:41:26.944Z,1009.18
2022-12-19T03:42:07.434Z,1009.29
2022-12-19T03:42:48.006Z,1009.19
2022-12-19T03:43:28.473Z,1009.19
2022-12-19T03:44:08.943Z,1009.16
2022-12-19T03:44:49.430Z,1009.21
2022-12-19T03:45:29.934Z,1009.17
2022-12-19T03:46:10.578Z,1009.21
2022-12-19T03:46:50.926Z,1009.17
2022-12-19T03:47:31.464Z,1009.21
2022-12-19T03:48:11.965Z,1009.14
2022-12-19T03:48:52.449Z,1009.14
2022-12-19T03:49:32.928Z,1009.15
2022-12-19T03:50:13.408Z,1009.07
2022-12-19T03:50:53.900Z,1009.09
2022-12-19T03:51:35.138Z,1009.08
2022-12-19T03:52:15.623Z,1009.07
2022-12-19T03:52:56.132Z,1009.07
2022-12-19T03:53:36.746Z,1009.14
2022-12-19T03:54:17.111Z,1009.11
2022-12-19T03:54:57.577Z,1009.04
2022-12-19T03:55:38.124Z,1009.05
2022-12-19T03:56:18.615Z,1009.03
2022-12-19T03:56:59.086Z,1008.98
2022-12-19T03:57:39.585Z,1009.02
2022-12-19T03:58:20.082Z,1009.09
2022-12-19T03:59:00.580Z,1009.06
2022-12-19T03:59:41.066Z,1009.21
2022-12-19T04:00:21.575Z,1009.11
2022-12-19T04:01:42.653Z,1009.02
2022-12-19T04:02:23.242Z,1008.99
2022-12-19T04:03:03.629Z,1009
2022-12-19T04:03:44.115Z,1009.09
2022-12-19T04:04:24.555Z,1009.01
2022-12-19T04:05:05.108Z,1009.02
2022-12-19T04:05:45.528Z,1008.98
2022-12-19T04:06:26.035Z,1008.97
2022-12-19T04:07:06.518Z,1008.96
2022-12-19T04:07:47.030Z,1009.05
2022-12-19T04:09:08.141Z,1008.93
2022-12-19T04:09:48.503Z,1009.01
2022-12-19T04:10:28.971Z,1009.04
2022-12-19T04:11:09.464Z,1009.04
2022-12-19T04:11:49.918Z,1009.03
2022-12-19T04:12:30.400Z,1009.05
2022-12-19T04:13:10.890Z,1009
2022-12-19T04:13:51.393Z,1009.01
2022-12-19T04:14:31.868Z,1009.04
2022-12-19T04:15:12.366Z,1008.92
2022-12-19T04:15:52.887Z,1008.93
2022-12-19T04:17:13.818Z,1009.05
2022-12-19T04:20:27.399Z,1009.1
2022-12-19T04:21:07.871Z,1009.06
2022-12-19T04:21:48.339Z,1009.2
2022-12-19T04:22:28.811Z,1009.09
2022-12-19T04:23:09.295Z,1009.12
2022-12-19T04:23:49.755Z,1009.14
2022-12-19T04:24:30.360Z,1009.15
2022-12-19T04:25:10.705Z,1009.15
2022-12-19T04:25:51.235Z,1009.22
2022-12-19T04:26:31.693Z,1009.13
2022-12-19T04:27:12.162Z,1009.24
2022-12-19T04:27:52.647Z,1009.23
2022-12-19T04:28:33.155Z,1009.15
2022-12-19T04:29:13.655Z,1009.09
2022-12-19T04:29:54.200Z,1009.18
2022-12-19T04:30:36.194Z,1009.16
2022-12-19T04:31:15.243Z,1009.16
2022-12-19T04:31:55.662Z,1009.18
2022-12-19T04:32:36.170Z,1009.16
2022-12-19T04:33:16.654Z,1009.21
2022-12-19T04:33:57.167Z,1009.19
2022-12-19T04:35:18.150Z,1009.18
2022-12-19T04:35:58.646Z,1009.16
2022-12-19T04:36:39.167Z,1009.26
2022-12-19T04:37:19.681Z,1009.22
2022-12-19T04:38:00.151Z,1009.24
2022-12-19T04:38:40.662Z,1009.17
2022-12-19T04:39:21.176Z,1009.21
2022-12-19T04:40:01.767Z,1009.13
2022-12-19T04:40:42.155Z,1009.16
2022-12-19T04:41:22.640Z,1009.19
2022-12-19T04:42:03.232Z,1009.11
2022-12-19T04:42:43.707Z,1009.08
2022-12-19T04:43:24.206Z,1009.09
2022-12-19T04:44:04.686Z,1009.06
2022-12-19T04:44:45.221Z,1009.18
2022-12-19T04:45:25.689Z,1009.05
2022-12-19T04:46:06.208Z,1009.11
2022-12-19T04:46:46.650Z,1009.02
2022-12-19T04:47:27.155Z,1009.08
2022-12-19T04:48:08.222Z,1009.05
2022-12-19T04:48:48.110Z,1009.02
2022-12-19T04:49:28.617Z,1009.03
2022-12-19T04:50:09.096Z,1009.02
2022-12-19T04:50:49.657Z,1008.98
2022-12-19T04:51:30.128Z,1008.92
2022-12-19T04:52:54.412Z,1009
2022-12-19T04:53:31.598Z,1008.95
2022-12-19T04:54:12.098Z,1008.91
2022-12-19T04:54:52.551Z,1008.91
2022-12-19T04:55:33.174Z,1008.91
2022-12-19T04:56:13.524Z,1008.94
2022-12-19T04:56:54.017Z,1008.98
2022-12-19T04:57:34.497Z,1008.95
2022-12-19T04:58:19.021Z,1008.86
2022-12-19T04:58:55.498Z,1008.9
2022-12-19T04:59:35.965Z,1008.9
2022-12-19T05:00:16.450Z,1008.95
2022-12-19T05:00:56.945Z,1009
2022-12-19T05:01:37.536Z,1008.94
2022-12-19T05:02:18.099Z,1008.97
2022-12-19T05:02:58.730Z,1008.99
2022-12-19T05:03:39.063Z,1008.98
2022-12-19T05:04:19.529Z,1008.95
2022-12-19T05:05:00.000Z,1008.94
2022-12-19T05:05:40.478Z,1008.94
2022-12-19T05:06:20.945Z,1008.94
2022-12-19T05:07:01.466Z,1008.91
2022-12-19T05:07:41.949Z,1008.91
2022-12-19T05:08:22.423Z,1008.89
2022-12-19T05:09:02.945Z,1008.86
2022-12-19T05:09:43.425Z,1008.85
2022-12-19T05:10:23.912Z,1008.86
2022-12-19T05:11:04.537Z,1008.79
2022-12-19T05:11:44.922Z,1008.8
2022-12-19T05:12:26.571Z,1008.83
2022-12-19T05:13:07.058Z,1008.93
2022-12-19T05:13:47.541Z,1008.8
2022-12-19T05:14:28.052Z,1008.82
2022-12-19T05:15:08.503Z,1008.79
2022-12-19T05:15:49.022Z,1008.77
2022-12-19T05:16:29.493Z,1008.77
2022-12-19T05:17:10.007Z,1008.81
2022-12-19T05:17:50.487Z,1008.74
2022-12-19T05:18:30.975Z,1008.72
2022-12-19T05:19:11.444Z,1008.8
2022-12-19T05:19:52.198Z,1008.75
2022-12-19T05:20:32.701Z,1008.73
2022-12-19T05:21:13.194Z,1008.77
2022-12-19T05:21:53.665Z,1008.83
2022-12-19T05:22:34.182Z,1008.82
2022-12-19T05:23:17.319Z,1008.77
2022-12-19T05:23:55.701Z,1008.79
2022-12-19T05:24:36.223Z,1008.84
2022-12-19T05:25:16.661Z,1008.77
2022-12-19T05:25:57.190Z,1008.79
2022-12-19T05:26:37.809Z,1008.76
2022-12-19T05:27:18.165Z,1008.81
2022-12-19T05:27:58.656Z,1008.83
2022-12-19T05:28:39.121Z,1008.82
2022-12-19T05:29:19.651Z,1008.88
2022-12-19T05:30:00.137Z,1008.86
2022-12-19T05:30:40.623Z,1008.82
2022-12-19T05:31:21.150Z,1008.79
2022-12-19T05:32:01.598Z,1008.82
2022-12-19T05:32:42.073Z,1008.83
2022-12-19T05:33:22.612Z,1008.86
2022-12-19T05:34:03.080Z,1008.83
2022-12-19T05:34:43.582Z,1008.79
2022-12-19T05:35:24.189Z,1008.86
2022-12-19T05:36:04.666Z,1008.81
2022-12-19T05:36:45.147Z,1008.91
2022-12-19T05:37:25.614Z,1008.95
2022-12-19T05:38:06.128Z,1008.89
2022-12-19T05:38:46.630Z,1008.87
2022-12-19T05:39:27.143Z,1008.94
2022-12-19T05:40:07.657Z,1008.98
2022-12-19T05:40:48.177Z,1008.92
2022-12-19T05:41:28.721Z,1008.94
2022-12-19T05:42:12.251Z,1008.92
2022-12-19T05:42:49.739Z,1008.98
2022-12-19T05:43:30.246Z,1008.99
2022-12-19T05:44:10.734Z,1008.98
2022-12-19T05:44:51.192Z,1008.94
2022-12-19T05:45:31.673Z,1008.93
2022-12-19T05:46:12.172Z,1008.93
2022-12-19T05:46:52.664Z,1008.93
2022-12-19T05:47:33.219Z,1008.92
2022-12-19T05:48:13.793Z,1008.92
2022-12-19T05:48:55.330Z,1008.95
2022-12-19T05:49:35.797Z,1008.93
2022-12-19T05:50:16.279Z,1008.92
2022-12-19T05:50:56.756Z,1009.02
2022-12-19T05:51:37.283Z,1008.98
2022-12-19T05:52:17.768Z,1008.94
2022-12-19T06:31:40.167Z,1008.87
2022-12-19T06:32:20.492Z,1008.87
2022-12-19T06:33:01.072Z,1008.85
2022-12-19T06:33:41.548Z,1008.85
2022-12-19T06:34:47.182Z,1008.93
2022-12-19T06:35:04.732Z,1008.88
2022-12-19T06:35:43.081Z,1008.89
2022-12-19T06:36:23.578Z,1008.96
2022-12-19T06:37:07.917Z,1008.96
2022-12-19T06:37:44.551Z,1008.93
2022-12-19T06:38:25.014Z,1008.94
2022-12-19T06:39:05.574Z,1008.92
2022-12-19T06:39:46.068Z,1008.98
2022-12-19T06:40:26.545Z,1009.01
2022-12-19T06:41:07.040Z,1009.03
2022-12-19T06:41:47.506Z,1009.03
2022-12-19T06:42:28.015Z,1009.07
2022-12-19T06:43:08.493Z,1009.04
2022-12-19T06:43:53.266Z,1009.07
2022-12-19T06:44:29.540Z,1009.08
2022-12-19T06:45:10.069Z,1009.08
2022-12-19T06:45:50.610Z,1009.03
2022-12-19T06:46:31.201Z,1009.06
2022-12-19T06:47:13.494Z,1009.04
2022-12-19T06:47:53.921Z,1009.07
2022-12-19T06:48:34.445Z,1009.04
2022-12-19T06:49:15.007Z,1009.06
2022-12-19T06:49:55.902Z,1009.04
2022-12-19T06:50:36.496Z,1009.08
2022-12-19T06:51:17.046Z,1009.1
2022-12-19T06:51:57.615Z,1009.06
2022-12-19T06:52:38.155Z,1009.04
2022-12-19T06:53:18.757Z,1009.09
2022-12-19T06:53:59.421Z,1009.11
2022-12-19T06:54:39.828Z,1009.14
2022-12-19T06:55:20.340Z,1009.14
2022-12-19T06:56:01.059Z,1009.11
2022-12-19T06:56:41.581Z,1009.09
2022-12-19T06:57:22.135Z,1009.14
2022-12-19T06:58:03.555Z,1009.11
2022-12-19T06:58:44.233Z,1009.12
2022-12-19T06:59:24.648Z,1009.09
2022-12-19T07:00:05.201Z,1009.13
2022-12-19T07:00:45.782Z,1009.16
2022-12-19T07:01:26.307Z,1009.14
2022-12-19T07:02:06.754Z,1009.16
2022-12-19T07:02:47.614Z,1009.15
2022-12-19T07:03:27.891Z,1009.11
2022-12-19T07:04:08.400Z,1009.15
2022-12-19T07:04:48.915Z,1009.2
2022-12-19T07:05:29.513Z,1009.18
2022-12-19T07:06:10.994Z,1009.17
2022-12-19T07:06:51.478Z,1009.2
2022-12-19T07:07:32.078Z,1009.18
2022-12-19T07:08:12.589Z,1009.17
2022-12-19T07:08:53.091Z,1009.15
2022-12-19T07:09:35.203Z,1009.19
2022-12-19T07:10:15.864Z,1009.18
2022-12-19T07:10:56.491Z,1009.17
2022-12-19T07:13:54.925Z,1009.18
2022-12-19T07:14:35.468Z,1009.18
2022-12-19T07:15:15.972Z,1009.19
2022-12-19T07:15:57.685Z,1009.18
2022-12-19T07:16:38.155Z,1009.16
2022-12-19T07:17:18.620Z,1009.2
2022-12-19T07:17:59.191Z,1009.21
2022-12-19T07:19:20.216Z,1009.22
2022-12-19T07:20:00.767Z,1009.24
2022-12-19T07:20:45.007Z,1009.23
2022-12-19T07:21:21.695Z,1009.25
2022-12-19T07:22:02.247Z,1009.29
2022-12-19T07:22:42.703Z,1009.34
2022-12-19T07:23:23.242Z,1009.3
2022-12-19T07:24:04.774Z,1009.3
2022-12-19T07:24:45.350Z,1009.33
2022-12-19T07:25:25.805Z,1009.37
2022-12-19T07:26:06.248Z,1009.32
2022-12-19T07:26:46.766Z,1009.35
2022-12-19T07:27:31.835Z,1009.35
2022-12-19T07:28:07.765Z,1009.34
2022-12-19T07:29:29.724Z,1009.3
2022-12-19T07:30:10.251Z,1009.31
2022-12-19T07:30:50.760Z,1009.28
2022-12-19T07:31:31.505Z,1009.28
2022-12-19T07:32:11.926Z,1009.28
2022-12-19T07:32:52.393Z,1009.28
2022-12-19T07:33:33.064Z,1009.27
2022-12-19T07:34:13.534Z,1009.29
2022-12-19T07:34:54.094Z,1009.25
2022-12-19T07:35:35.649Z,1009.23
2022-12-19T07:36:56.642Z,1009.17
2022-12-19T07:39:31.512Z,1009.09
2022-12-19T07:41:45.772Z,1009.08
2022-12-19T07:42:30.856Z,1009.13
2022-12-19T07:43:06.940Z,1009.07
2022-12-19T07:43:47.625Z,1009.05
2022-12-19T07:44:28.299Z,1009
2022-12-19T07:45:09.145Z,1009.04
2022-12-19T07:45:49.844Z,1009.05
2022-12-19T07:47:48.051Z,1009.07
2022-12-19T07:48:28.620Z,1009.05
2022-12-19T07:49:09.550Z,1009
2022-12-19T07:49:50.038Z,1009.02
2022-12-19T07:50:30.845Z,1009.05
2022-12-19T07:51:52.362Z,1009.03
2022-12-19T07:52:33.262Z,1009.07
2022-12-19T07:53:14.722Z,1009.05
2022-12-19T07:53:55.301Z,1009.04
2022-12-19T07:54:36.733Z,1009.07
2022-12-19T07:55:18.275Z,1009.08
2022-12-19T07:55:58.888Z,1009.03
2022-12-19T07:56:39.401Z,1009.03
2022-12-19T07:57:19.995Z,1009.01
2022-12-19T07:58:00.554Z,1008.98
2022-12-19T07:58:43.782Z,1009
2022-12-19T07:59:29.743Z,1009
2022-12-19T08:04:00.018Z,1009.06
2022-12-19T08:06:20.957Z,1009.06
2022-12-19T08:08:55.368Z,1009.14
2022-12-19T08:09:37.593Z,1009.02
2022-12-19T08:10:22.816Z,1009.09
2022-12-19T08:11:03.166Z,1009.06
2022-12-19T08:11:42.958Z,1009.11
2022-12-19T08:12:23.654Z,1009.08
2022-12-19T08:13:04.372Z,1009.07
2022-12-19T08:14:26.819Z,1009.12
2022-12-19T08:15:08.640Z,1009.13
2022-12-19T08:15:48.460Z,1009.15
2022-12-19T08:16:29.483Z,1009.22
2022-12-19T08:17:20.022Z,1009.14
2022-12-19T08:17:51.425Z,1009.17
2022-12-19T08:18:34.819Z,1009.2
2022-12-19T08:19:15.409Z,1009.23
2022-12-19T08:19:55.953Z,1009.28
2022-12-19T08:20:36.558Z,1009.23
2022-12-19T08:21:58.552Z,1009.25
2022-12-19T08:22:39.267Z,1009.29
2022-12-19T08:23:19.866Z,1009.23
2022-12-19T08:24:00.653Z,1009.22
2022-12-19T08:24:41.052Z,1009.25
2022-12-19T08:25:22.321Z,1009.24
2022-12-19T08:26:03.374Z,1009.31
2022-12-19T08:26:47.509Z,1009.29
2022-12-19T08:27:24.822Z,1009.31
2022-12-19T08:28:06.246Z,1009.28
2022-12-19T08:28:47.044Z,1009.31
2022-12-19T08:29:27.740Z,1009.29
2022-12-19T08:30:08.933Z,1009.27
2022-12-19T08:30:49.013Z,1009.25
2022-12-19T08:31:29.778Z,1009.3
2022-12-19T08:32:13.259Z,1009.33
2022-12-19T08:32:51.181Z,1009.28
2022-12-19T08:33:31.777Z,1009.27
2022-12-19T08:34:13.258Z,1009.31
2022-12-19T08:34:54.293Z,1009.32
2022-12-19T08:35:35.163Z,1009.32
2022-12-19T08:36:16.016Z,1009.33
2022-12-19T08:36:56.682Z,1009.34
2022-12-19T08:37:38.117Z,1009.33
2022-12-19T08:38:18.514Z,1009.31
2022-12-19T08:38:58.997Z,1009.33
2022-12-19T08:39:39.616Z,1009.35
2022-12-19T08:40:20.271Z,1009.36
2022-12-19T08:41:00.819Z,1009.37
2022-12-19T08:41:41.514Z,1009.3
2022-12-19T08:42:21.947Z,1009.4
2022-12-19T08:43:02.463Z,1009.34
2022-12-19T08:43:43.291Z,1009.35
2022-12-19T08:47:58.995Z,1009.29
2022-12-19T08:48:40.029Z,1009.27
2022-12-19T08:49:20.671Z,1009.28
2022-12-19T08:50:01.203Z,1009.34
2022-12-19T08:50:41.761Z,1009.33
2022-12-19T08:51:22.432Z,1009.34
2022-12-19T08:52:03.079Z,1009.3
2022-12-19T08:52:43.873Z,1009.35
2022-12-19T08:53:26.424Z,1009.36
2022-12-19T08:54:06.509Z,1009.37
2022-12-19T08:54:45.386Z,1009.38
2022-12-19T08:55:26.076Z,1009.4
2022-12-19T08:56:07.360Z,1009.33
2022-12-19T08:56:48.012Z,1009.38
2022-12-19T08:57:28.527Z,1009.29
2022-12-19T08:58:09.095Z,1009.3
2022-12-19T09:01:23.018Z,1009.14
2022-12-19T09:02:04.933Z,1009.24
2022-12-19T09:02:44.283Z,1009
2022-12-19T09:03:24.907Z,1009
2022-12-19T09:05:53.242Z,1009.08
2022-12-19T09:06:02.882Z,1009
2022-12-19T09:08:42.297Z,1009.03
2022-12-19T09:09:23.455Z,1009.1
2022-12-19T09:10:04.173Z,1009.01
2022-12-19T09:10:45.507Z,1009.04
2022-12-19T09:14:05.897Z,1008.94
2022-12-19T09:14:45.054Z,1008.98
2022-12-19T09:15:26.730Z,1008.91
2022-12-19T09:16:07.388Z,1008.89
2022-12-19T09:16:49.101Z,1008.9
2022-12-19T09:17:31.619Z,1008.95
2022-12-19T09:18:12.381Z,1009.01
2022-12-19T09:18:53.849Z,1008.82
2022-12-19T09:19:34.489Z,1008.89
2022-12-19T09:20:19.722Z,1008.96
2022-12-19T09:20:55.738Z,1008.94
2022-12-19T09:21:36.271Z,1009.02
2022-12-19T09:22:17.788Z,1009.01
2022-12-19T09:22:59.275Z,1009.02
2022-12-19T09:23:40.062Z,1008.98
2022-12-19T09:24:20.995Z,1009.01
2022-12-19T09:25:01.668Z,1008.98
2022-12-19T09:25:43.731Z,1009.02
2022-12-19T09:26:24.400Z,1009.05
2022-12-19T09:28:25.516Z,1009.09
2022-12-19T09:28:29.604Z,1009.05
2022-12-19T09:29:20.250Z,1009.11
2022-12-19T09:29:53.488Z,1009.08
2022-12-19T09:30:34.572Z,1009.11
2022-12-19T09:31:16.649Z,1009.03
2022-12-19T09:31:57.261Z,1009.02
2022-12-19T09:32:37.810Z,1008.99
2022-12-19T09:35:38.248Z,1008.95
2022-12-19T09:36:18.954Z,1008.96
2022-12-19T09:37:00.680Z,1008.93
2022-12-19T09:37:41.137Z,1009.02
2022-12-19T09:38:23.159Z,1008.98
2022-12-19T09:39:04.716Z,1008.93
2022-12-19T09:39:45.588Z,1008.94
2022-12-19T09:40:26.098Z,1008.96
2022-12-19T09:41:06.700Z,1008.9
2022-12-19T09:41:47.087Z,1008.95
2022-12-19T09:43:08.364Z,1008.98
2022-12-19T09:43:48.902Z,1009.01
2022-12-19T09:44:29.405Z,1008.97
2022-12-19T09:45:50.641Z,1008.99
2022-12-19T09:46:31.163Z,1008.95
2022-12-19T09:47:11.753Z,1008.98
2022-12-19T09:47:52.364Z,1009.01
2022-12-19T09:48:33.006Z,1009.05
2022-12-19T09:49:13.551Z,1009.01
2022-12-19T09:49:54.168Z,1009
2022-12-19T09:50:34.983Z,1008.97
2022-12-19T09:51:15.634Z,1008.96
2022-12-19T09:51:56.437Z,1008.98
2022-12-19T09:55:52.890Z,1008.94
2022-12-19T09:56:34.118Z,1008.94
2022-12-19T09:57:13.980Z,1008.97
2022-12-19T09:57:54.513Z,1008.99
2022-12-19T09:58:35.083Z,1008.97
2022-12-19T09:59:15.633Z,1009.01
2022-12-19T09:59:56.337Z,1008.97
2022-12-19T10:00:36.905Z,1009.03
2022-12-19T10:01:17.533Z,1009.02
2022-12-19T10:01:58.007Z,1009.02
2022-12-19T10:02:38.654Z,1009.05
2022-12-19T10:03:19.141Z,1009.08
2022-12-19T10:03:59.642Z,1009.16
2022-12-19T10:04:40.113Z,1009.17
2022-12-19T10:05:30.195Z,1009.18
2022-12-19T10:07:41.826Z,1009.15
2022-12-19T10:08:08.637Z,1009.09
2022-12-19T10:08:43.101Z,1009.15
2022-12-19T10:10:29.735Z,1009.09
2022-12-19T10:10:58.087Z,1009.09
2022-12-19T10:11:46.247Z,1009.12
2022-12-19T10:12:37.197Z,1009.08
2022-12-19T10:12:42.093Z,1009.02
2022-12-19T10:12:51.509Z,1009.05
2022-12-19T10:14:12.045Z,1009.04
2022-12-19T10:14:52.751Z,1008.96
2022-12-19T10:15:35.040Z,1008.9
2022-12-19T10:16:16.587Z,1008.93
2022-12-19T10:17:22.957Z,1008.87
2022-12-19T10:17:41.442Z,1008.8
2022-12-19T10:18:23.176Z,1008.86